Time;durP1;ratioP1;P1;durP2;ratioP2;P2;SDS_P1;SDS_P2;PMS_P1;PMS_P2;Temp;Humidity;BMP_temperature;BMP_pressure;BME280_temperature;BME280_humidity;BME280_pressure;Samples;Min_cycle;Max_cycle;Signal;HPM_P1;HPM_P2
2021/06/26 00:00:53;;;;;;;;;;;;;;;;;;5095455;28;19938;-87
2021/06/26 00:03:22;;;;;;;;;;;;;;;;;;5047950;28;20405;-86
2021/06/26 00:05:56;;;;;;;;;;;;;;;;;;5060945;28;20003;-86
2021/06/26 00:08:25;;;;;;;;;;;;;;;;;;5095016;28;19931;-85
2021/06/26 00:10:53;;;;;;;;;;;;;;;;;;5050344;28;20290;-86
2021/06/26 00:13:23;;;;;;;;;;;;;;;;;;5064634;28;19924;-87
2021/06/26 00:15:52;;;;;;;;;;;;;;;;;;5066226;28;19924;-87
2021/06/26 00:18:20;;;;;;;;;;;;;;;;;;5047609;28;20437;-86
2021/06/26 00:20:49;;;;;;;;;;;;;;;;;;5049255;28;19924;-88
2021/06/26 00:23:17;;;;;;;;;;;;;;;;;;5065307;28;20397;-85
2021/06/26 00:25:46;;;;;;;;;;;;;;;;;;5053506;28;19913;-85
2021/06/26 00:28:14;;;;;;;;;;;;;;;;;;5067509;28;19908;-88
2021/06/26 00:30:44;;;;;;;;;;;;;;;;;;5057586;28;19919;-86
2021/06/26 00:33:13;;;;;;;;;;;;;;;;;;5105082;28;19919;-86
2021/06/26 00:35:41;;;;;;;;;;;;;;;;;;5085251;28;19935;-87
2021/06/26 00:38:10;;;;;;;;;;;;;;;;;;5065906;28;19931;-85
2021/06/26 00:40:38;;;;;;;;;;;;;;;;;;5058268;28;19924;-83
2021/06/26 00:43:07;;;;;;;;;;;;;;;;;;5045726;28;19925;-85
2021/06/26 00:45:35;;;;;;;;;;;;;;;;;;5044654;28;19937;-86
2021/06/26 00:48:06;;;;;;;;;;;;;;;;;;5042274;28;19935;-86
2021/06/26 00:50:34;;;;;;;;;;;;;;;;;;5064073;28;19925;-86
2021/06/26 00:53:03;;;;;;;;;;;;;;;;;;5047878;28;20003;-87
2021/06/26 00:55:31;;;;;;;;;;;;;;;;;;5050330;28;19932;-87
2021/06/26 00:58:01;;;;;;;;;;;;;;;;;;5042829;28;19925;-87
2021/06/26 01:00:30;;;;;;;;;;;;;;;;;;5063439;28;19929;-86
2021/06/26 01:03:00;;;;;;;;;;;;;;;;;;5078131;28;19924;-88
2021/06/26 01:05:31;;;;;;;;;;;;;;;;;;5071463;28;19936;-87
2021/06/26 01:08:02;;;;;;;;;;;;;;;;;;5041034;28;19935;-85
2021/06/26 01:10:37;;;;;;;;;;;;;;;;;;5045544;28;19931;-87
2021/06/26 01:13:12;;;;;;;;;;;;;;;;;;5074343;28;19925;-88
2021/06/26 01:15:52;;;;;;;;;;;;;;;;;;5057312;28;19929;-88
2021/06/26 01:18:22;;;;;;;;;;;;;;;;;;5047806;28;19925;-87
2021/06/26 01:20:52;;;;;;;;;;;;;;;;;;5051369;28;19924;-88
2021/06/26 01:23:26;;;;;;;;;;;;;;;;;;5078517;28;19925;-86
2021/06/26 01:25:55;;;;;;;;;;;;;;;;;;5048099;28;19931;-86
2021/06/26 01:28:25;;;;;;;;;;;;;;;;;;5046045;28;19924;-89
2021/06/26 01:31:01;;;;;;;;;;;;;;;;;;5047342;28;19939;-85
2021/06/26 01:33:30;;;;;;;;;;;;;;;;;;5049992;28;19924;-87
2021/06/26 01:35:59;;;;;;;;;;;;;;;;;;5081273;28;19959;-85
2021/06/26 01:38:29;;;;;;;;;;;;;;;;;;5041792;28;19932;-86
2021/06/26 01:40:58;;;;;;;;;;;;;;;;;;5064250;28;19924;-87
2021/06/26 01:43:27;;;;;;;;;;;;;;;;;;5049573;28;19925;-85
2021/06/26 01:45:56;;;;;;;;;;;;;;;;;;5047454;28;19925;-87
2021/06/26 01:48:25;;;;;;;;;;;;;;;;;;5051638;28;20520;-87
2021/06/26 01:50:54;;;;;;;;;;;;;;;;;;5046353;28;19929;-87
2021/06/26 01:53:24;;;;;;;;;;;;;;;;;;5082499;28;19925;-88
2021/06/26 01:55:56;;;;;;;;;;;;;;;;;;5045091;28;19925;-85
2021/06/26 01:58:33;;;;;;;;;;;;;;;;;;5050762;28;19925;-87
2021/06/26 02:01:08;;;;;;;;;;;;;;;;;;5064651;28;19935;-88
2021/06/26 02:03:57;;;;;;;;;;;;;;;;;;5045502;28;19935;-88
2021/06/26 02:06:29;;;;;;;;;;;;;;;;;;5079672;28;19930;-87
2021/06/26 02:08:58;;;;;;;;;;;;;;;;;;5044141;28;19931;-86
2021/06/26 02:11:29;;;;;;;;;;;;;;;;;;5042950;28;19932;-86
2021/06/26 02:14:01;;;;;;;;;;;;;;;;;;5080590;28;20397;-87
2021/06/26 02:16:31;;;;;;;;;;;;;;;;;;5079682;28;19928;-86
2021/06/26 02:19:03;;;;;;;;;;;;;;;;;;5049164;28;19934;-87
2021/06/26 02:21:37;;;;;;;;;;;;;;;;;;5084070;28;19932;-85
2021/06/26 02:24:14;;;;;;;;;;;;;;;;;;5043259;28;19925;-87
2021/06/26 02:26:55;;;;;;;;;;;;;;;;;;5054483;28;19924;-86
2021/06/26 02:29:40;;;;;;;;;;;;;;;;;;5047322;28;19932;-87
2021/06/26 02:32:09;;;;;;;;;;;;;;;;;;5076478;28;19939;-86
2021/06/26 02:34:38;;;;;;;;;;;;;;;;;;5050448;28;20097;-87
2021/06/26 02:37:07;;;;;;;;;;;;;;;;;;5056256;28;19932;-87
2021/06/26 02:39:36;;;;;;;;;;;;;;;;;;5027996;28;19936;-85
2021/06/26 02:42:07;;;;;;;;;;;;;;;;;;5059218;28;19924;-87
2021/06/26 02:44:35;;;;;;;;;;;;;;;;;;5079621;28;19924;-87
2021/06/26 02:47:04;;;;;;;;;;;;;;;;;;5040039;28;19925;-85
2021/06/26 02:49:33;;;;;;;;;;;;;;;;;;5045401;28;19931;-86
2021/06/26 02:52:01;;;;;;;;;;;;;;;;;;5062173;28;19928;-87
2021/06/26 02:54:30;;;;;;;;;;;;;;;;;;5061558;28;19975;-84
2021/06/26 02:56:58;;;;;;;;;;;;;;;;;;5047398;28;19929;-86
2021/06/26 02:59:28;;;;;;;;;;;;;;;;;;5058052;28;19936;-86
2021/06/26 03:01:56;;;;;;;;;;;;;;;;;;5075175;28;19924;-86
2021/06/26 03:04:25;;;;;;;;;;;;;;;;;;5048542;28;19932;-84
2021/06/26 03:06:53;;;;;;;;;;;;;;;;;;5037165;28;19931;-85
2021/06/26 03:09:22;;;;;;;;;;;;;;;;;;5073838;28;19928;-86
2021/06/26 03:11:50;;;;;;;;;;;;;;;;;;5060849;28;19932;-85
2021/06/26 03:14:18;;;;;;;;;;;;;;;;;;5064247;28;19925;-86
2021/06/26 03:16:48;;;;;;;;;;;;;;;;;;5062368;28;19936;-86
2021/06/26 03:19:16;;;;;;;;;;;;;;;;;;5046325;28;19925;-86
2021/06/26 03:21:45;;;;;;;;;;;;;;;;;;5077042;28;19924;-85
2021/06/26 03:24:14;;;;;;;;;;;;;;;;;;5061735;28;20303;-86
2021/06/26 03:26:42;;;;;;;;;;;;;;;;;;5042885;28;19935;-87
2021/06/26 03:29:11;;;;;;;;;;;;;;;;;;5046420;28;19928;-86
2021/06/26 03:31:39;;;;;;;;;;;;;;;;;;5077714;28;19932;-84
2021/06/26 03:34:09;;;;;;;;;;;;;;;;;;5063887;28;19931;-86
2021/06/26 03:36:37;;;;;;;;;;;;;;;;;;5082231;28;20011;-86
2021/06/26 03:39:06;;;;;;;;;;;;;;;;;;5077772;28;19929;-84
2021/06/26 03:41:34;;;;;;;;;;;;;;;;;;5060687;28;19931;-86
2021/06/26 03:44:02;;;;;;;;;;;;;;;;;;5044769;28;19936;-84
2021/06/26 03:46:31;;;;;;;;;;;;;;;;;;5063292;28;19932;-84
2021/06/26 03:48:59;;;;;;;;;;;;;;;;;;5077546;28;19932;-83
2021/06/26 03:51:29;;;;;;;;;;;;;;;;;;5042680;28;19929;-83
2021/06/26 03:53:57;;;;;;;;;;;;;;;;;;5058606;28;20448;-85
2021/06/26 03:56:25;;;;;;;;;;;;;;;;;;5044602;28;19932;-85
2021/06/26 03:58:54;;;;;;;;;;;;;;;;;;5078538;28;19935;-85
2021/06/26 04:01:22;;;;;;;;;;;;;;;;;;5063151;28;20389;-84
2021/06/26 04:03:50;;;;;;;;;;;;;;;;;;5061988;28;19925;-83
2021/06/26 04:06:19;;;;;;;;;;;;;;;;;;5068454;28;19924;-83
2021/06/26 04:08:48;;;;;;;;;;;;;;;;;;5052967;28;20108;-86
2021/06/26 04:11:17;;;;;;;;;;;;;;;;;;5083834;28;19924;-83
2021/06/26 04:13:45;;;;;;;;;;;;;;;;;;5038105;28;19925;-84
2021/06/26 04:16:14;;;;;;;;;;;;;;;;;;5078134;28;19928;-83
2021/06/26 04:18:42;;;;;;;;;;;;;;;;;;5071461;28;19936;-86
2021/06/26 04:21:11;;;;;;;;;;;;;;;;;;5044576;28;19925;-86
2021/06/26 04:23:39;;;;;;;;;;;;;;;;;;5045568;28;19925;-85
2021/06/26 04:26:09;;;;;;;;;;;;;;;;;;5071613;28;19935;-85
2021/06/26 04:28:38;;;;;;;;;;;;;;;;;;5039354;28;19924;-84
2021/06/26 04:31:06;;;;;;;;;;;;;;;;;;5061361;28;19972;-86
2021/06/26 04:33:34;;;;;;;;;;;;;;;;;;5049571;28;19925;-87
2021/06/26 04:36:05;;;;;;;;;;;;;;;;;;5035704;28;19925;-83
2021/06/26 04:38:33;;;;;;;;;;;;;;;;;;5072720;28;19931;-86
2021/06/26 04:41:01;;;;;;;;;;;;;;;;;;5047317;28;19925;-86
2021/06/26 04:43:31;;;;;;;;;;;;;;;;;;5045396;28;19995;-84
2021/06/26 04:46:00;;;;;;;;;;;;;;;;;;5067098;28;19925;-86
2021/06/26 04:48:29;;;;;;;;;;;;;;;;;;5064444;28;19932;-86
2021/06/26 04:50:57;;;;;;;;;;;;;;;;;;5071921;28;20386;-85
2021/06/26 04:53:26;;;;;;;;;;;;;;;;;;5094452;28;19932;-86
2021/06/26 04:55:54;;;;;;;;;;;;;;;;;;5075997;28;19929;-85
2021/06/26 04:58:23;;;;;;;;;;;;;;;;;;5029377;28;19924;-83
2021/06/26 05:00:57;;;;;;;;;;;;;;;;;;5044279;28;19929;-84
2021/06/26 05:03:25;;;;;;;;;;;;;;;;;;5061181;28;19928;-85
2021/06/26 05:05:53;;;;;;;;;;;;;;;;;;5045928;28;19924;-86
2021/06/26 05:08:22;;;;;;;;;;;;;;;;;;5047004;28;19931;-85
2021/06/26 05:10:50;;;;;;;;;;;;;;;;;;5057752;28;19925;-85
2021/06/26 05:13:19;;;;;;;;;;;;;;;;;;5050448;28;19925;-85
2021/06/26 05:15:47;;;;;;;;;;;;;;;;;;5069372;28;19924;-84
2021/06/26 05:18:17;;;;;;;;;;;;;;;;;;5044603;28;19947;-85
2021/06/26 05:20:45;;;;;;;;;;;;;;;;;;5079987;28;19929;-87
2021/06/26 05:23:14;;;;;;;;;;;;;;;;;;5067222;28;19924;-84
2021/06/26 05:25:42;;;;;;;;;;;;;;;;;;5070339;28;19929;-84
2021/06/26 05:28:11;;;;;;;;;;;;;;;;;;5063367;28;19929;-86
2021/06/26 05:30:39;;;;;;;;;;;;;;;;;;5047524;28;19925;-81
2021/06/26 05:33:08;;;;;;;;;;;;;;;;;;5076502;28;19932;-82
2021/06/26 05:35:37;;;;;;;;;;;;;;;;;;5067502;28;19924;-87
2021/06/26 05:38:06;;;;;;;;;;;;;;;;;;5079540;28;20254;-84
2021/06/26 05:40:34;;;;;;;;;;;;;;;;;;5047340;28;19924;-87
2021/06/26 05:43:04;;;;;;;;;;;;;;;;;;5043182;28;19925;-82
2021/06/26 05:45:32;;;;;;;;;;;;;;;;;;5054592;28;19925;-82
2021/06/26 05:48:00;;;;;;;;;;;;;;;;;;5050053;28;19932;-86
2021/06/26 05:50:29;;;;;;;;;;;;;;;;;;5039908;28;19932;-85
2021/06/26 05:52:59;;;;;;;;;;;;;;;;;;5051200;28;19925;-83
2021/06/26 05:55:27;;;;;;;;;;;;;;;;;;5046879;28;19932;-83
2021/06/26 05:57:56;;;;;;;;;;;;;;;;;;5083798;28;20153;-82
2021/06/26 06:00:24;;;;;;;;;;;;;;;;;;5042796;28;20302;-81
2021/06/26 06:02:53;;;;;;;;;;;;;;;;;;5035318;28;19929;-82
2021/06/26 06:05:21;;;;;;;;;;;;;;;;;;5085579;28;19944;-83
2021/06/26 06:07:49;;;;;;;;;;;;;;;;;;5062084;28;19925;-85
2021/06/26 06:10:22;;;;;;;;;;;;;;;;;;5064544;28;19908;-87
2021/06/26 06:12:50;;;;;;;;;;;;;;;;;;5070086;28;19925;-85
2021/06/26 06:15:18;;;;;;;;;;;;;;;;;;5040542;28;19932;-83
2021/06/26 06:17:47;;;;;;;;;;;;;;;;;;5035755;28;19951;-83
2021/06/26 06:20:15;;;;;;;;;;;;;;;;;;5033881;28;19925;-82
2021/06/26 06:22:43;;;;;;;;;;;;;;;;;;5071601;28;20397;-81
2021/06/26 06:25:12;;;;;;;;;;;;;;;;;;5056081;28;19933;-84
2021/06/26 06:27:42;;;;;;;;;;;;;;;;;;5083652;28;19924;-86
2021/06/26 06:30:11;;;;;;;;;;;;;;;;;;5052413;28;20310;-84
2021/06/26 06:32:39;;;;;;;;;;;;;;;;;;5069474;28;19932;-83
2021/06/26 06:35:08;;;;;;;;;;;;;;;;;;5080433;28;19931;-83
2021/06/26 06:37:37;;;;;;;;;;;;;;;;;;5060965;28;20380;-84
2021/06/26 06:40:06;;;;;;;;;;;;;;;;;;5061371;28;19931;-84
2021/06/26 06:42:35;;;;;;;;;;;;;;;;;;5043726;28;19948;-87
2021/06/26 06:45:06;;;;;;;;;;;;;;;;;;5039563;28;19932;-85
2021/06/26 06:47:34;;;;;;;;;;;;;;;;;;5042667;28;19924;-85
2021/06/26 06:50:03;;;;;;;;;;;;;;;;;;5048889;28;19924;-85
2021/06/26 06:52:31;;;;;;;;;;;;;;;;;;5079030;28;19924;-85
2021/06/26 06:54:59;;;;;;;;;;;;;;;;;;5039139;28;19925;-84
2021/06/26 06:57:28;;;;;;;;;;;;;;;;;;5050604;28;19924;-84
2021/06/26 07:00:06;;;;;;;;;;;;;;;;;;5038067;28;19924;-83
2021/06/26 07:02:43;;;;;;;;;;;;;;;;;;5063300;28;20310;-84
2021/06/26 07:05:11;;;;;;;;;;;;;;;;;;5048480;28;19925;-84
2021/06/26 07:07:40;;;;;;;;;;;;;;;;;;5036536;28;19928;-83
2021/06/26 07:10:08;;;;;;;;;;;;;;;;;;5053866;28;19950;-83
2021/06/26 07:12:37;;;;;;;;;;;;;;;;;;5065191;28;19932;-85
2021/06/26 07:15:06;;;;;;;;;;;;;;;;;;5051701;28;19992;-84
2021/06/26 07:17:34;;;;;;;;;;;;;;;;;;5031918;28;19931;-84
2021/06/26 07:20:04;;;;;;;;;;;;;;;;;;5052183;28;19928;-84
2021/06/26 07:22:32;;;;;;;;;;;;;;;;;;5053867;28;19935;-84
2021/06/26 07:25:00;;;;;;;;;;;;;;;;;;5037693;28;19947;-84
2021/06/26 07:27:29;;;;;;;;;;;;;;;;;;5070748;28;19924;-87
2021/06/26 07:29:57;;;;;;;;;;;;;;;;;;5094219;28;19933;-85
2021/06/26 07:32:26;;;;;;;;;;;;;;;;;;5077446;28;19927;-87
2021/06/26 07:34:54;;;;;;;;;;;;;;;;;;5089638;28;19912;-84
2021/06/26 07:37:24;;;;;;;;;;;;;;;;;;5061392;28;19923;-88
2021/06/26 07:39:52;;;;;;;;;;;;;;;;;;5082102;28;19921;-87
2021/06/26 07:42:20;;;;;;;;;;;;;;;;;;5059825;28;19924;-80
2021/06/26 07:44:49;;;;;;;;;;;;;;;;;;5051875;28;19929;-79
2021/06/26 07:47:17;;;;;;;;;;;;;;;;;;5073588;28;19919;-85
2021/06/26 07:49:46;;;;;;;;;;;;;;;;;;5057991;28;19919;-83
2021/06/26 07:52:14;;;;;;;;;;;;;;;;;;5083450;28;19929;-82
2021/06/26 07:54:44;;;;;;;;;;;;;;;;;;5039992;28;20587;-82
2021/06/26 07:57:12;;;;;;;;;;;;;;;;;;5044213;28;20466;-86
2021/06/26 07:59:41;;;;;;;;;;;;;;;;;;5041671;28;20393;-82
2021/06/26 08:02:09;;;;;;;;;;;;;;;;;;5068816;28;19924;-82
2021/06/26 08:04:37;;;;;;;;;;;;;;;;;;5053379;28;19913;-83
2021/06/26 08:07:06;;;;;;;;;;;;;;;;;;5075974;28;19932;-84
2021/06/26 08:09:34;;;;;;;;;;;;;;;;;;5082758;28;19912;-83
2021/06/26 08:12:04;;;;;;;;;;;;;;;;;;5088720;28;19920;-84
2021/06/26 08:14:32;;;;;;;;;;;;;;;;;;5094028;28;19912;-84
2021/06/26 08:17:01;;;;;;;;;;;;;;;;;;5090125;28;19926;-83
2021/06/26 08:19:29;;;;;;;;;;;;;;;;;;5061497;28;19913;-84
2021/06/26 08:21:58;;;;;;;;;;;;;;;;;;5090506;28;19923;-85
2021/06/26 08:24:27;;;;;;;;;;;;;;;;;;5058706;28;19919;-85
2021/06/26 08:26:59;;;;;;;;;;;;;;;;;;5089427;28;19908;-84
2021/06/26 08:29:28;;;;;;;;;;;;;;;;;;5060487;28;19931;-85
2021/06/26 08:31:57;;;;;;;;;;;;;;;;;;5077987;28;19930;-83
2021/06/26 08:34:25;;;;;;;;;;;;;;;;;;5075066;28;19946;-85
2021/06/26 08:36:53;;;;;;;;;;;;;;;;;;5077606;28;19914;-85
2021/06/26 08:39:22;;;;;;;;;;;;;;;;;;5051314;28;19921;-83
2021/06/26 08:41:50;;;;;;;;;;;;;;;;;;5062524;28;19920;-83
2021/06/26 08:44:19;;;;;;;;;;;;;;;;;;5055671;28;19912;-83
2021/06/26 08:46:50;;;;;;;;;;;;;;;;;;5060646;28;19915;-84
2021/06/26 08:49:19;;;;;;;;;;;;;;;;;;5072941;28;20206;-85
2021/06/26 08:51:47;;;;;;;;;;;;;;;;;;5076927;28;19919;-85
2021/06/26 08:54:19;;;;;;;;;;;;;;;;;;5071052;28;19913;-85
2021/06/26 08:56:48;;;;;;;;;;;;;;;;;;5089969;28;19919;-85
2021/06/26 08:59:17;;;;;;;;;;;;;;;;;;5094132;28;19912;-82
2021/06/26 09:01:45;;;;;;;;;;;;;;;;;;5080300;28;19918;-82
2021/06/26 09:04:17;;;;;;;;;;;;;;;;;;5090105;28;19935;-84
2021/06/26 09:06:49;;;;;;;;;;;;;;;;;;5064816;28;19948;-82
2021/06/26 09:09:18;;;;;;;;;;;;;;;;;;5076196;28;19920;-82
2021/06/26 09:11:46;;;;;;;;;;;;;;;;;;5066703;28;19908;-84
2021/06/26 09:14:18;;;;;;;;;;;;;;;;;;5103920;28;19932;-82
2021/06/26 09:16:50;;;;;;;;;;;;;;;;;;5071406;28;19923;-82
2021/06/26 09:19:21;;;;;;;;;;;;;;;;;;5071372;28;19908;-84
2021/06/26 09:21:56;;;;;;;;;;;;;;;;;;5072623;28;19915;-83
2021/06/26 09:24:25;;;;;;;;;;;;;;;;;;5078510;28;19909;-84
2021/06/26 09:26:57;;;;;;;;;;;;;;;;;;5078569;28;19922;-82
2021/06/26 09:29:26;;;;;;;;;;;;;;;;;;5112551;28;19912;-83
2021/06/26 09:31:55;;;;;;;;;;;;;;;;;;5078541;28;19935;-81
2021/06/26 09:34:35;;;;;;;;;;;;;;;;;;5061413;28;19912;-82
2021/06/26 09:37:04;;;;;;;;;;;;;;;;;;5084626;28;19979;-84
2021/06/26 09:39:33;;;;;;;;;;;;;;;;;;5094943;28;19921;-83
2021/06/26 09:42:02;;;;;;;;;;;;;;;;;;5092350;28;19908;-82
2021/06/26 09:44:30;;;;;;;;;;;;;;;;;;5075411;28;19942;-83
2021/06/26 09:47:00;;;;;;;;;;;;;;;;;;5086963;28;19916;-83
2021/06/26 09:49:30;;;;;;;;;;;;;;;;;;5057597;28;19923;-82
2021/06/26 09:52:00;;;;;;;;;;;;;;;;;;5087008;28;19931;-82
2021/06/26 09:54:29;;;;;;;;;;;;;;;;;;5093537;28;19912;-82
2021/06/26 09:56:58;;;;;;;;;;;;;;;;;;5077814;28;19924;-82
2021/06/26 09:59:29;;;;;;;;;;;;;;;;;;5092254;28;19908;-83
2021/06/26 10:01:58;;;;;;;;;;;;;;;;;;5097788;28;19920;-82
2021/06/26 10:04:26;;;;;;;;;;;;;;;;;;5077130;28;19921;-82
2021/06/26 10:06:56;;;;;;;;;;;;;;;;;;5096970;28;19909;-81
2021/06/26 10:09:27;;;;;;;;;;;;;;;;;;5097144;28;19922;-81
2021/06/26 10:11:55;;;;;;;;;;;;;;;;;;5079982;28;19932;-81
2021/06/26 10:14:24;;;;;;;;;;;;;;;;;;5081298;28;19913;-81
2021/06/26 10:16:52;;;;;;;;;;;;;;;;;;5065441;28;19923;-81
2021/06/26 10:19:20;;;;;;;;;;;;;;;;;;5087258;28;20220;-82
2021/06/26 10:21:48;;;;;;;;;;;;;;;;;;5075774;28;19925;-82
2021/06/26 10:24:18;;;;;;;;;;;;;;;;;;5097935;28;19919;-81
2021/06/26 10:26:47;;;;;;;;;;;;;;;;;;5076172;28;19909;-84
2021/06/26 10:29:15;;;;;;;;;;;;;;;;;;5063744;28;19912;-82
2021/06/26 10:31:44;;;;;;;;;;;;;;;;;;5099076;27;19920;-81
2021/06/26 10:34:13;;;;;;;;;;;;;;;;;;5090604;28;19913;-81
2021/06/26 10:36:44;;;;;;;;;;;;;;;;;;5080214;28;19923;-81
2021/06/26 10:39:21;;;;;;;;;;;;;;;;;;5087386;28;19912;-84
2021/06/26 10:41:59;;;;;;;;;;;;;;;;;;5091891;28;19919;-84
2021/06/26 10:44:28;;;;;;;;;;;;;;;;;;5058582;28;19912;-84
2021/06/26 10:46:56;;;;;;;;;;;;;;;;;;5086693;28;19927;-83
2021/06/26 10:49:28;;;;;;;;;;;;;;;;;;5109934;28;19926;-83
2021/06/26 10:52:07;;;;;;;;;;;;;;;;;;5094870;28;19926;-83
2021/06/26 10:54:38;;;;;;;;;;;;;;;;;;5056832;28;19923;-84
2021/06/26 10:57:07;;;;;;;;;;;;;;;;;;5093382;28;19991;-83
2021/06/26 10:59:35;;;;;;;;;;;;;;;;;;5078797;28;20711;-83
2021/06/26 11:02:04;;;;;;;;;;;;;;;;;;5095202;28;19914;-82
2021/06/26 11:04:33;;;;;;;;;;;;;;;;;;5078089;28;19919;-83
2021/06/26 11:07:05;;;;;;;;;;;;;;;;;;5104767;28;19924;-83
2021/06/26 11:09:35;;;;;;;;;;;;;;;;;;5094590;28;19923;-83
2021/06/26 11:12:09;;;;;;;;;;;;;;;;;;5090987;28;19921;-84
2021/06/26 11:14:37;;;;;;;;;;;;;;;;;;5092185;28;19923;-84
2021/06/26 11:17:06;;;;;;;;;;;;;;;;;;5076551;28;19912;-83
2021/06/26 11:19:41;;;;;;;;;;;;;;;;;;5060252;28;19918;-84
2021/06/26 11:22:12;;;;;;;;;;;;;;;;;;5104564;27;19915;-83
2021/06/26 11:24:58;;;;;;;;;;;;;;;;;;5089644;28;19913;-82
2021/06/26 11:27:29;;;;;;;;;;;;;;;;;;5090612;28;19912;-82
2021/06/26 11:30:01;;;;;;;;;;;;;;;;;;5078786;28;19913;-83
2021/06/26 11:32:30;;;;;;;;;;;;;;;;;;5095473;28;19912;-83
2021/06/26 11:35:00;;;;;;;;;;;;;;;;;;5090729;28;19918;-82
2021/06/26 11:37:38;;;;;;;;;;;;;;;;;;5111394;28;19920;-84
2021/06/26 11:40:16;;;;;;;;;;;;;;;;;;5077723;28;19912;-83
2021/06/26 11:42:51;;;;;;;;;;;;;;;;;;5077605;28;19912;-84
2021/06/26 11:45:20;;;;;;;;;;;;;;;;;;5058203;28;19912;-83
2021/06/26 11:47:48;;;;;;;;;;;;;;;;;;5078344;28;19920;-83
2021/06/26 11:50:17;;;;;;;;;;;;;;;;;;5110182;27;19912;-84
2021/06/26 11:52:45;;;;;;;;;;;;;;;;;;5073198;28;19915;-83
2021/06/26 11:55:13;;;;;;;;;;;;;;;;;;5056970;28;19913;-83
2021/06/26 11:57:42;;;;;;;;;;;;;;;;;;5092795;28;19912;-83
2021/06/26 12:00:12;;;;;;;;;;;;;;;;;;5057701;28;20046;-82
2021/06/26 12:02:40;;;;;;;;;;;;;;;;;;5092610;28;19919;-85
2021/06/26 12:05:18;;;;;;;;;;;;;;;;;;5088421;28;19918;-83
2021/06/26 12:07:46;;;;;;;;;;;;;;;;;;5055125;28;19908;-83
2021/06/26 12:10:14;;;;;;;;;;;;;;;;;;5087394;28;19931;-83
2021/06/26 12:12:49;;;;;;;;;;;;;;;;;;5071904;28;19912;-82
2021/06/26 12:15:19;;;;;;;;;;;;;;;;;;5061535;28;19928;-80
2021/06/26 12:17:48;;;;;;;;;;;;;;;;;;5055817;28;19923;-81
2021/06/26 12:20:16;;;;;;;;;;;;;;;;;;5059681;28;19939;-81
2021/06/26 12:22:50;;;;;;;;;;;;;;;;;;5079510;28;19914;-80
2021/06/26 12:25:26;;;;;;;;;;;;;;;;;;5094750;28;19923;-80
2021/06/26 12:28:00;;;;;;;;;;;;;;;;;;5076505;28;19913;-82
2021/06/26 12:30:30;;;;;;;;;;;;;;;;;;5071353;28;19908;-81
2021/06/26 12:33:03;;;;;;;;;;;;;;;;;;5077505;28;19919;-81
2021/06/26 12:35:34;;;;;;;;;;;;;;;;;;5090909;28;22411;-81
2021/06/26 12:38:02;;;;;;;;;;;;;;;;;;5074952;28;19913;-81
2021/06/26 12:40:33;;;;;;;;;;;;;;;;;;5078193;28;19958;-81
2021/06/26 12:43:06;;;;;;;;;;;;;;;;;;5078496;28;19912;-81
2021/06/26 12:45:36;;;;;;;;;;;;;;;;;;5078563;28;19919;-81
2021/06/26 12:48:09;;;;;;;;;;;;;;;;;;5078928;28;19912;-81
2021/06/26 12:50:51;;;;;;;;;;;;;;;;;;5109441;28;19919;-81
2021/06/26 12:53:20;;;;;;;;;;;;;;;;;;5095393;28;19913;-81
2021/06/26 12:55:52;;;;;;;;;;;;;;;;;;5076989;28;19915;-81
2021/06/26 12:58:23;;;;;;;;;;;;;;;;;;5079281;28;19913;-81
2021/06/26 13:00:57;;;;;;;;;;;;;;;;;;5077800;28;19932;-81
2021/06/26 13:03:25;;;;;;;;;;;;;;;;;;5093594;28;19912;-81
2021/06/26 13:06:03;;;;;;;;;;;;;;;;;;5077675;28;19917;-81
2021/06/26 13:08:45;;;;;;;;;;;;;;;;;;5093151;28;19912;-81
2021/06/26 13:11:14;;;;;;;;;;;;;;;;;;5089656;28;19916;-81
2021/06/26 13:13:43;;;;;;;;;;;;;;;;;;5077159;28;19931;-81
2021/06/26 13:16:13;;;;;;;;;;;;;;;;;;5109543;28;19924;-81
2021/06/26 13:18:41;;;;;;;;;;;;;;;;;;5075949;28;19931;-81
2021/06/26 13:21:11;;;;;;;;;;;;;;;;;;5072472;28;19908;-81
2021/06/26 13:23:41;;;;;;;;;;;;;;;;;;5056187;28;19979;-81
2021/06/26 13:26:09;;;;;;;;;;;;;;;;;;5109132;28;19912;-82
2021/06/26 13:28:37;;;;;;;;;;;;;;;;;;5081580;28;19920;-81
2021/06/26 13:31:06;;;;;;;;;;;;;;;;;;5099409;28;19919;-81
2021/06/26 13:33:36;;;;;;;;;;;;;;;;;;5061210;28;19935;-81
2021/06/26 13:36:04;;;;;;;;;;;;;;;;;;5081505;28;19927;-81
2021/06/26 13:38:32;;;;;;;;;;;;;;;;;;5069635;28;19909;-81
2021/06/26 13:41:01;;;;;;;;;;;;;;;;;;5096436;28;19912;-81
2021/06/26 13:43:29;;;;;;;;;;;;;;;;;;5080436;28;19920;-81
2021/06/26 13:45:58;;;;;;;;;;;;;;;;;;5064172;28;19921;-81
2021/06/26 13:48:26;;;;;;;;;;;;;;;;;;5062387;28;19923;-81
2021/06/26 13:50:56;;;;;;;;;;;;;;;;;;5078374;28;19913;-81
2021/06/26 13:53:24;;;;;;;;;;;;;;;;;;5114205;28;19928;-80
2021/06/26 13:55:52;;;;;;;;;;;;;;;;;;5064583;28;19913;-80
2021/06/26 13:58:21;;;;;;;;;;;;;;;;;;5047168;28;19913;-80
2021/06/26 14:00:49;;;;;;;;;;;;;;;;;;5077602;28;19935;-80
2021/06/26 14:03:18;;;;;;;;;;;;;;;;;;5063019;28;19923;-80
2021/06/26 14:05:46;;;;;;;;;;;;;;;;;;5058794;28;19920;-80
2021/06/26 14:08:16;;;;;;;;;;;;;;;;;;5066076;28;19928;-80
2021/06/26 14:10:44;;;;;;;;;;;;;;;;;;5066609;28;20282;-80
2021/06/26 14:13:13;;;;;;;;;;;;;;;;;;5045137;28;19932;-81
2021/06/26 14:15:41;;;;;;;;;;;;;;;;;;5067932;28;19934;-80
2021/06/26 14:18:09;;;;;;;;;;;;;;;;;;5063572;28;19924;-80
2021/06/26 14:20:38;;;;;;;;;;;;;;;;;;5101685;28;19908;-80
2021/06/26 14:23:06;;;;;;;;;;;;;;;;;;5092757;28;20383;-80
2021/06/26 14:25:36;;;;;;;;;;;;;;;;;;5071176;28;19982;-80
2021/06/26 14:28:04;;;;;;;;;;;;;;;;;;5073513;28;19928;-80
2021/06/26 14:30:32;;;;;;;;;;;;;;;;;;5074865;28;19908;-80
2021/06/26 14:33:01;;;;;;;;;;;;;;;;;;5075015;28;19919;-79
2021/06/26 14:35:30;;;;;;;;;;;;;;;;;;5089406;28;19919;-80
2021/06/26 14:37:58;;;;;;;;;;;;;;;;;;5042368;28;19925;-80
2021/06/26 14:40:26;;;;;;;;;;;;;;;;;;5034993;28;19932;-80
2021/06/26 14:42:57;;;;;;;;;;;;;;;;;;5067466;28;19924;-80
2021/06/26 14:45:25;;;;;;;;;;;;;;;;;;5063665;28;19928;-82
2021/06/26 14:47:54;;;;;;;;;;;;;;;;;;5081699;28;19925;-82
2021/06/26 14:50:22;;;;;;;;;;;;;;;;;;5049037;28;19939;-82
2021/06/26 14:52:50;;;;;;;;;;;;;;;;;;5051988;28;19924;-81
2021/06/26 14:55:19;;;;;;;;;;;;;;;;;;5050383;28;19939;-81
2021/06/26 14:57:49;;;;;;;;;;;;;;;;;;5035645;28;19932;-82
2021/06/26 15:00:20;;;;;;;;;;;;;;;;;;5062115;28;19932;-81
2021/06/26 15:02:52;;;;;;;;;;;;;;;;;;5048762;28;19933;-81
2021/06/26 15:05:20;;;;;;;;;;;;;;;;;;5037423;28;19925;-81
2021/06/26 15:07:48;;;;;;;;;;;;;;;;;;5038301;28;19932;-82
2021/06/26 15:10:17;;;;;;;;;;;;;;;;;;5068900;28;20311;-82
2021/06/26 15:12:45;;;;;;;;;;;;;;;;;;5081623;28;19936;-81
2021/06/26 15:15:14;;;;;;;;;;;;;;;;;;5072549;28;19925;-82
2021/06/26 15:17:43;;;;;;;;;;;;;;;;;;5071693;28;19939;-82
2021/06/26 15:20:13;;;;;;;;;;;;;;;;;;5042793;28;19936;-81
2021/06/26 15:22:42;;;;;;;;;;;;;;;;;;5074616;28;19925;-82
2021/06/26 15:25:10;;;;;;;;;;;;;;;;;;5079694;28;19933;-81
2021/06/26 15:27:39;;;;;;;;;;;;;;;;;;5064078;28;19924;-81
2021/06/26 15:30:08;;;;;;;;;;;;;;;;;;5033827;28;19925;-82
2021/06/26 15:32:36;;;;;;;;;;;;;;;;;;5053043;28;20373;-83
2021/06/26 15:35:07;;;;;;;;;;;;;;;;;;5080790;28;19936;-83
2021/06/26 15:37:35;;;;;;;;;;;;;;;;;;5035602;28;19924;-83
2021/06/26 15:40:04;;;;;;;;;;;;;;;;;;5064816;28;20534;-83
2021/06/26 15:42:32;;;;;;;;;;;;;;;;;;5037880;28;19942;-83
2021/06/26 15:45:00;;;;;;;;;;;;;;;;;;5044952;28;19929;-83
2021/06/26 15:47:31;;;;;;;;;;;;;;;;;;5063913;28;20217;-82
2021/06/26 15:49:59;;;;;;;;;;;;;;;;;;5030710;28;19951;-82
2021/06/26 15:52:31;;;;;;;;;;;;;;;;;;5051135;28;20382;-82
2021/06/26 15:54:59;;;;;;;;;;;;;;;;;;5056773;28;19932;-83
2021/06/26 15:57:27;;;;;;;;;;;;;;;;;;5077862;28;19939;-81
2021/06/26 15:59:56;;;;;;;;;;;;;;;;;;5039737;28;20102;-81
2021/06/26 16:02:24;;;;;;;;;;;;;;;;;;5044632;28;19935;-81
2021/06/26 16:04:52;;;;;;;;;;;;;;;;;;5054260;28;19951;-81
2021/06/26 16:07:21;;;;;;;;;;;;;;;;;;5071509;28;20414;-81
2021/06/26 16:09:52;;;;;;;;;;;;;;;;;;5038313;28;19948;-81
2021/06/26 16:12:20;;;;;;;;;;;;;;;;;;5050973;28;20072;-82
2021/06/26 16:14:49;;;;;;;;;;;;;;;;;;5049047;28;19924;-82
2021/06/26 16:17:17;;;;;;;;;;;;;;;;;;5032326;28;19925;-82
2021/06/26 16:19:45;;;;;;;;;;;;;;;;;;5067004;28;19924;-82
2021/06/26 16:22:15;;;;;;;;;;;;;;;;;;5050204;28;19924;-82
2021/06/26 16:24:44;;;;;;;;;;;;;;;;;;5049643;28;20383;-82
2021/06/26 16:27:13;;;;;;;;;;;;;;;;;;5045879;28;19932;-82
2021/06/26 16:29:42;;;;;;;;;;;;;;;;;;5041952;28;20314;-82
2021/06/26 16:32:11;;;;;;;;;;;;;;;;;;5073756;28;19924;-82
2021/06/26 16:34:39;;;;;;;;;;;;;;;;;;5051585;28;19924;-82
2021/06/26 16:37:08;;;;;;;;;;;;;;;;;;5069195;28;19932;-83
2021/06/26 16:39:45;;;;;;;;;;;;;;;;;;5064948;28;19924;-82
2021/06/26 16:42:16;;;;;;;;;;;;;;;;;;5081441;28;19940;-82
2021/06/26 16:44:44;;;;;;;;;;;;;;;;;;5030082;28;19956;-83
2021/06/26 16:47:13;;;;;;;;;;;;;;;;;;5049584;28;20386;-81
2021/06/26 16:49:41;;;;;;;;;;;;;;;;;;5048904;28;19932;-81
2021/06/26 16:52:09;;;;;;;;;;;;;;;;;;5062004;28;19932;-81
2021/06/26 16:54:38;;;;;;;;;;;;;;;;;;5035378;28;19936;-81
2021/06/26 16:57:07;;;;;;;;;;;;;;;;;;5050475;28;19931;-81
2021/06/26 16:59:38;;;;;;;;;;;;;;;;;;5049871;28;20375;-80
2021/06/26 17:02:06;;;;;;;;;;;;;;;;;;5069951;28;19936;-80